sensor_id;sensor_type;location;lat;lon;timestamp;P1;durP1;ratioP1;P2;durP2;ratioP2
71734;SDS011;59577;52.122;5.406;2023-06-22T00:02:25;3.30;;;1.70;;
71734;SDS011;59577;52.122;5.406;2023-06-22T00:04:52;2.20;;;1.50;;
71734;SDS011;59577;52.122;5.406;2023-06-22T00:07:18;2.65;;;1.83;;
71734;SDS011;59577;52.122;5.406;2023-06-22T00:09:45;2.45;;;1.75;;
71734;SDS011;59577;52.122;5.406;2023-06-22T00:12:12;1.90;;;1.50;;
71734;SDS011;59577;52.122;5.406;2023-06-22T00:14:38;6.60;;;1.15;;
71734;SDS011;59577;52.122;5.406;2023-06-22T00:17:05;1.63;;;1.40;;
71734;SDS011;59577;52.122;5.406;2023-06-22T00:19:31;3.47;;;1.60;;
71734;SDS011;59577;52.122;5.406;2023-06-22T00:22:01;1.90;;;1.27;;
71734;SDS011;59577;52.122;5.406;2023-06-22T00:24:31;2.80;;;1.33;;
71734;SDS011;59577;52.122;5.406;2023-06-22T00:26:59;2.58;;;1.88;;
71734;SDS011;59577;52.122;5.406;2023-06-22T00:29:26;2.50;;;1.50;;
71734;SDS011;59577;52.122;5.406;2023-06-22T00:31:52;1.95;;;1.33;;
71734;SDS011;59577;52.122;5.406;2023-06-22T00:34:19;3.65;;;2.00;;
71734;SDS011;59577;52.122;5.406;2023-06-22T00:36:46;2.15;;;1.60;;
71734;SDS011;59577;52.122;5.406;2023-06-22T00:39:13;1.75;;;1.50;;
71734;SDS011;59577;52.122;5.406;2023-06-22T00:41:39;5.80;;;1.47;;
71734;SDS011;59577;52.122;5.406;2023-06-22T00:44:06;4.07;;;2.05;;
71734;SDS011;59577;52.122;5.406;2023-06-22T00:46:33;3.97;;;2.00;;
71734;SDS011;59577;52.122;5.406;2023-06-22T00:48:59;2.97;;;1.83;;
71734;SDS011;59577;52.122;5.406;2023-06-22T00:51:26;2.53;;;2.00;;
71734;SDS011;59577;52.122;5.406;2023-06-22T00:53:53;2.50;;;2.10;;
71734;SDS011;59577;52.122;5.406;2023-06-22T00:56:20;3.50;;;2.10;;
71734;SDS011;59577;52.122;5.406;2023-06-22T00:58:51;4.18;;;1.65;;
71734;SDS011;59577;52.122;5.406;2023-06-22T01:01:19;3.03;;;1.80;;
71734;SDS011;59577;52.122;5.406;2023-06-22T01:03:50;2.40;;;1.90;;
71734;SDS011;59577;52.122;5.406;2023-06-22T01:06:21;2.67;;;1.60;;
71734;SDS011;59577;52.122;5.406;2023-06-22T01:09:02;3.42;;;2.00;;
71734;SDS011;59577;52.122;5.406;2023-06-22T01:11:38;2.92;;;1.75;;
71734;SDS011;59577;52.122;5.406;2023-06-22T01:14:14;3.13;;;1.50;;
71734;SDS011;59577;52.122;5.406;2023-06-22T01:16:44;6.88;;;2.08;;
71734;SDS011;59577;52.122;5.406;2023-06-22T01:19:27;2.13;;;1.60;;
71734;SDS011;59577;52.122;5.406;2023-06-22T01:22:02;2.05;;;1.30;;
71734;SDS011;59577;52.122;5.406;2023-06-22T01:27:47;2.00;;;1.35;;
71734;SDS011;59577;52.122;5.406;2023-06-22T01:30:22;1.65;;;1.42;;
71734;SDS011;59577;52.122;5.406;2023-06-22T01:32:53;2.70;;;1.60;;
71734;SDS011;59577;52.122;5.406;2023-06-22T01:35:21;3.67;;;1.70;;
71734;SDS011;59577;52.122;5.406;2023-06-22T01:37:48;2.67;;;1.98;;
71734;SDS011;59577;52.122;5.406;2023-06-22T01:40:16;2.60;;;1.38;;
71734;SDS011;59577;52.122;5.406;2023-06-22T01:42:43;3.80;;;1.85;;
71734;SDS011;59577;52.122;5.406;2023-06-22T01:45:11;2.57;;;1.63;;
71734;SDS011;59577;52.122;5.406;2023-06-22T01:47:39;3.60;;;2.03;;
71734;SDS011;59577;52.122;5.406;2023-06-22T01:50:05;2.88;;;1.80;;
71734;SDS011;59577;52.122;5.406;2023-06-22T01:52:33;2.85;;;1.75;;
71734;SDS011;59577;52.122;5.406;2023-06-22T01:55:00;2.47;;;1.70;;
71734;SDS011;59577;52.122;5.406;2023-06-22T01:57:27;2.87;;;1.80;;
71734;SDS011;59577;52.122;5.406;2023-06-22T02:00:04;2.63;;;2.05;;
71734;SDS011;59577;52.122;5.406;2023-06-22T02:02:35;3.08;;;1.85;;
71734;SDS011;59577;52.122;5.406;2023-06-22T02:05:06;4.55;;;1.70;;
71734;SDS011;59577;52.122;5.406;2023-06-22T02:07:41;3.13;;;2.00;;
71734;SDS011;59577;52.122;5.406;2023-06-22T02:10:15;2.23;;;1.80;;
71734;SDS011;59577;52.122;5.406;2023-06-22T02:12:47;2.63;;;1.88;;
71734;SDS011;59577;52.122;5.406;2023-06-22T02:15:14;2.42;;;1.70;;
71734;SDS011;59577;52.122;5.406;2023-06-22T02:17:42;3.15;;;1.90;;
71734;SDS011;59577;52.122;5.406;2023-06-22T02:20:12;3.63;;;2.05;;
71734;SDS011;59577;52.122;5.406;2023-06-22T02:22:42;2.53;;;1.97;;
71734;SDS011;59577;52.122;5.406;2023-06-22T02:25:08;3.13;;;1.83;;
71734;SDS011;59577;52.122;5.406;2023-06-22T02:27:35;2.80;;;1.80;;
71734;SDS011;59577;52.122;5.406;2023-06-22T02:30:02;2.45;;;1.60;;
71734;SDS011;59577;52.122;5.406;2023-06-22T02:32:29;2.63;;;2.00;;
71734;SDS011;59577;52.122;5.406;2023-06-22T02:34:56;3.60;;;2.43;;
71734;SDS011;59577;52.122;5.406;2023-06-22T02:37:22;2.38;;;2.05;;
71734;SDS011;59577;52.122;5.406;2023-06-22T02:39:51;2.45;;;1.67;;
71734;SDS011;59577;52.122;5.406;2023-06-22T02:42:18;2.25;;;1.70;;
71734;SDS011;59577;52.122;5.406;2023-06-22T02:44:46;4.22;;;1.80;;
71734;SDS011;59577;52.122;5.406;2023-06-22T02:47:13;3.00;;;1.93;;
71734;SDS011;59577;52.122;5.406;2023-06-22T02:49:40;6.07;;;1.98;;
71734;SDS011;59577;52.122;5.406;2023-06-22T02:52:07;2.88;;;1.77;;
71734;SDS011;59577;52.122;5.406;2023-06-22T02:54:33;3.33;;;1.60;;
71734;SDS011;59577;52.122;5.406;2023-06-22T02:57:00;2.55;;;1.85;;
71734;SDS011;59577;52.122;5.406;2023-06-22T02:59:29;3.67;;;2.30;;
71734;SDS011;59577;52.122;5.406;2023-06-22T03:01:59;2.30;;;1.70;;
71734;SDS011;59577;52.122;5.406;2023-06-22T03:04:25;2.78;;;1.92;;
71734;SDS011;59577;52.122;5.406;2023-06-22T03:06:52;2.17;;;1.73;;
71734;SDS011;59577;52.122;5.406;2023-06-22T03:09:19;2.50;;;2.00;;
71734;SDS011;59577;52.122;5.406;2023-06-22T03:11:46;3.30;;;1.80;;
71734;SDS011;59577;52.122;5.406;2023-06-22T03:14:12;3.17;;;1.98;;
71734;SDS011;59577;52.122;5.406;2023-06-22T03:16:39;3.40;;;1.95;;
71734;SDS011;59577;52.122;5.406;2023-06-22T03:19:07;3.10;;;1.95;;
71734;SDS011;59577;52.122;5.406;2023-06-22T03:21:34;3.22;;;1.85;;
71734;SDS011;59577;52.122;5.406;2023-06-22T03:24:00;3.00;;;2.20;;
71734;SDS011;59577;52.122;5.406;2023-06-22T03:26:27;2.58;;;1.95;;
71734;SDS011;59577;52.122;5.406;2023-06-22T03:28:54;3.45;;;2.20;;
71734;SDS011;59577;52.122;5.406;2023-06-22T03:31:20;2.70;;;2.30;;
71734;SDS011;59577;52.122;5.406;2023-06-22T03:33:48;3.35;;;2.25;;
71734;SDS011;59577;52.122;5.406;2023-06-22T03:36:16;2.10;;;1.57;;
71734;SDS011;59577;52.122;5.406;2023-06-22T03:38:46;2.65;;;2.10;;
71734;SDS011;59577;52.122;5.406;2023-06-22T03:41:13;5.72;;;2.10;;
71734;SDS011;59577;52.122;5.406;2023-06-22T03:43:40;4.47;;;2.50;;
71734;SDS011;59577;52.122;5.406;2023-06-22T03:46:07;2.75;;;2.30;;
71734;SDS011;59577;52.122;5.406;2023-06-22T03:48:34;5.40;;;2.60;;
71734;SDS011;59577;52.122;5.406;2023-06-22T03:51:00;4.05;;;2.50;;
71734;SDS011;59577;52.122;5.406;2023-06-22T03:53:28;2.88;;;2.55;;
71734;SDS011;59577;52.122;5.406;2023-06-22T03:55:55;3.42;;;2.58;;
71734;SDS011;59577;52.122;5.406;2023-06-22T03:58:22;4.00;;;2.03;;
71734;SDS011;59577;52.122;5.406;2023-06-22T04:00:49;3.23;;;2.77;;
71734;SDS011;59577;52.122;5.406;2023-06-22T04:03:17;3.47;;;2.70;;
71734;SDS011;59577;52.122;5.406;2023-06-22T04:05:46;2.88;;;2.08;;
71734;SDS011;59577;52.122;5.406;2023-06-22T04:08:13;5.90;;;2.45;;
71734;SDS011;59577;52.122;5.406;2023-06-22T04:10:40;2.63;;;2.03;;
71734;SDS011;59577;52.122;5.406;2023-06-22T04:13:07;3.67;;;2.47;;
71734;SDS011;59577;52.122;5.406;2023-06-22T04:15:34;3.53;;;2.53;;
71734;SDS011;59577;52.122;5.406;2023-06-22T04:18:01;3.25;;;2.83;;
71734;SDS011;59577;52.122;5.406;2023-06-22T04:20:27;3.30;;;2.75;;
71734;SDS011;59577;52.122;5.406;2023-06-22T04:22:55;3.40;;;2.55;;
71734;SDS011;59577;52.122;5.406;2023-06-22T04:25:22;5.27;;;3.40;;
71734;SDS011;59577;52.122;5.406;2023-06-22T04:27:49;4.68;;;3.40;;
71734;SDS011;59577;52.122;5.406;2023-06-22T04:30:15;6.00;;;3.13;;
71734;SDS011;59577;52.122;5.406;2023-06-22T04:32:42;4.28;;;3.60;;
71734;SDS011;59577;52.122;5.406;2023-06-22T04:35:10;6.93;;;4.07;;
71734;SDS011;59577;52.122;5.406;2023-06-22T04:37:37;4.73;;;2.80;;
71734;SDS011;59577;52.122;5.406;2023-06-22T04:40:05;4.80;;;3.00;;
71734;SDS011;59577;52.122;5.406;2023-06-22T04:42:33;4.70;;;3.25;;
71734;SDS011;59577;52.122;5.406;2023-06-22T04:45:01;5.57;;;4.10;;
71734;SDS011;59577;52.122;5.406;2023-06-22T04:47:28;5.90;;;4.30;;
71734;SDS011;59577;52.122;5.406;2023-06-22T04:49:54;7.33;;;4.90;;
71734;SDS011;59577;52.122;5.406;2023-06-22T04:52:21;7.40;;;5.25;;
71734;SDS011;59577;52.122;5.406;2023-06-22T04:54:48;9.77;;;6.35;;
71734;SDS011;59577;52.122;5.406;2023-06-22T04:57:22;10.63;;;5.88;;
71734;SDS011;59577;52.122;5.406;2023-06-22T04:59:59;9.27;;;7.00;;
71734;SDS011;59577;52.122;5.406;2023-06-22T05:02:45;9.13;;;7.37;;
71734;SDS011;59577;52.122;5.406;2023-06-22T05:05:13;8.18;;;6.55;;
71734;SDS011;59577;52.122;5.406;2023-06-22T05:07:41;6.65;;;5.68;;
71734;SDS011;59577;52.122;5.406;2023-06-22T05:10:10;8.15;;;6.90;;
71734;SDS011;59577;52.122;5.406;2023-06-22T05:12:38;13.65;;;7.93;;
71734;SDS011;59577;52.122;5.406;2023-06-22T05:15:06;10.57;;;8.00;;
71734;SDS011;59577;52.122;5.406;2023-06-22T05:17:34;9.07;;;7.20;;
71734;SDS011;59577;52.122;5.406;2023-06-22T05:20:01;10.65;;;7.07;;
71734;SDS011;59577;52.122;5.406;2023-06-22T05:22:32;11.13;;;7.53;;
71734;SDS011;59577;52.122;5.406;2023-06-22T05:24:59;14.48;;;10.73;;
71734;SDS011;59577;52.122;5.406;2023-06-22T05:27:25;12.83;;;9.57;;
71734;SDS011;59577;52.122;5.406;2023-06-22T05:29:52;13.00;;;9.63;;
71734;SDS011;59577;52.122;5.406;2023-06-22T05:32:19;13.02;;;8.88;;
71734;SDS011;59577;52.122;5.406;2023-06-22T05:34:46;13.32;;;9.10;;
71734;SDS011;59577;52.122;5.406;2023-06-22T05:37:12;11.38;;;9.57;;
71734;SDS011;59577;52.122;5.406;2023-06-22T05:39:39;13.60;;;9.33;;
71734;SDS011;59577;52.122;5.406;2023-06-22T05:42:05;13.65;;;10.52;;
71734;SDS011;59577;52.122;5.406;2023-06-22T05:44:36;15.20;;;10.23;;
71734;SDS011;59577;52.122;5.406;2023-06-22T05:47:04;13.30;;;10.48;;
71734;SDS011;59577;52.122;5.406;2023-06-22T05:49:30;13.60;;;11.55;;
71734;SDS011;59577;52.122;5.406;2023-06-22T05:51:59;19.30;;;13.30;;
71734;SDS011;59577;52.122;5.406;2023-06-22T05:54:29;18.98;;;11.48;;
71734;SDS011;59577;52.122;5.406;2023-06-22T05:56:56;14.82;;;11.40;;
71734;SDS011;59577;52.122;5.406;2023-06-22T05:59:23;17.45;;;13.15;;
71734;SDS011;59577;52.122;5.406;2023-06-22T06:01:49;18.55;;;13.10;;
71734;SDS011;59577;52.122;5.406;2023-06-22T06:04:19;16.60;;;11.87;;
71734;SDS011;59577;52.122;5.406;2023-06-22T06:06:46;18.55;;;12.77;;
71734;SDS011;59577;52.122;5.406;2023-06-22T06:09:15;14.38;;;12.88;;
71734;SDS011;59577;52.122;5.406;2023-06-22T06:11:42;18.65;;;12.65;;
71734;SDS011;59577;52.122;5.406;2023-06-22T06:14:09;16.23;;;12.85;;
71734;SDS011;59577;52.122;5.406;2023-06-22T06:16:35;17.23;;;12.80;;
71734;SDS011;59577;52.122;5.406;2023-06-22T06:19:02;17.40;;;12.20;;
71734;SDS011;59577;52.122;5.406;2023-06-22T06:21:28;16.13;;;12.20;;
71734;SDS011;59577;52.122;5.406;2023-06-22T06:23:56;14.25;;;12.00;;
71734;SDS011;59577;52.122;5.406;2023-06-22T06:26:23;14.70;;;11.30;;
71734;SDS011;59577;52.122;5.406;2023-06-22T06:28:55;14.27;;;11.43;;
71734;SDS011;59577;52.122;5.406;2023-06-22T06:31:22;18.08;;;11.85;;
71734;SDS011;59577;52.122;5.406;2023-06-22T06:33:49;15.13;;;12.18;;
71734;SDS011;59577;52.122;5.406;2023-06-22T06:36:16;13.18;;;11.55;;
71734;SDS011;59577;52.122;5.406;2023-06-22T06:38:43;15.57;;;12.73;;
71734;SDS011;59577;52.122;5.406;2023-06-22T06:41:10;14.63;;;12.17;;
71734;SDS011;59577;52.122;5.406;2023-06-22T06:43:36;15.50;;;11.88;;
71734;SDS011;59577;52.122;5.406;2023-06-22T06:46:03;15.27;;;12.50;;
71734;SDS011;59577;52.122;5.406;2023-06-22T06:48:30;12.70;;;10.70;;
71734;SDS011;59577;52.122;5.406;2023-06-22T06:50:57;14.82;;;13.15;;
71734;SDS011;59577;52.122;5.406;2023-06-22T06:53:23;12.50;;;11.17;;
71734;SDS011;59577;52.122;5.406;2023-06-22T06:55:50;15.75;;;12.50;;
71734;SDS011;59577;52.122;5.406;2023-06-22T06:58:16;13.95;;;11.52;;
71734;SDS011;59577;52.122;5.406;2023-06-22T07:00:43;13.52;;;11.93;;
71734;SDS011;59577;52.122;5.406;2023-06-22T07:03:09;17.02;;;12.95;;
71734;SDS011;59577;52.122;5.406;2023-06-22T07:05:36;13.67;;;12.27;;
71734;SDS011;59577;52.122;5.406;2023-06-22T07:08:03;12.98;;;11.48;;
71734;SDS011;59577;52.122;5.406;2023-06-22T07:10:30;13.10;;;11.80;;
71734;SDS011;59577;52.122;5.406;2023-06-22T07:12:57;13.27;;;11.93;;
71734;SDS011;59577;52.122;5.406;2023-06-22T07:15:23;12.73;;;11.43;;
71734;SDS011;59577;52.122;5.406;2023-06-22T07:17:50;14.27;;;11.70;;
71734;SDS011;59577;52.122;5.406;2023-06-22T07:20:17;15.70;;;11.73;;
71734;SDS011;59577;52.122;5.406;2023-06-22T07:22:45;12.65;;;11.25;;
71734;SDS011;59577;52.122;5.406;2023-06-22T07:25:12;12.50;;;10.75;;
71734;SDS011;59577;52.122;5.406;2023-06-22T07:27:45;11.38;;;10.18;;
71734;SDS011;59577;52.122;5.406;2023-06-22T07:30:29;12.40;;;11.13;;
71734;SDS011;59577;52.122;5.406;2023-06-22T07:32:57;13.18;;;11.40;;
71734;SDS011;59577;52.122;5.406;2023-06-22T07:35:25;13.77;;;10.88;;
71734;SDS011;59577;52.122;5.406;2023-06-22T07:37:51;12.27;;;10.30;;
71734;SDS011;59577;52.122;5.406;2023-06-22T07:40:18;11.02;;;8.93;;
71734;SDS011;59577;52.122;5.406;2023-06-22T07:42:45;12.50;;;9.73;;
71734;SDS011;59577;52.122;5.406;2023-06-22T07:45:14;12.45;;;9.65;;
71734;SDS011;59577;52.122;5.406;2023-06-22T07:47:40;10.23;;;9.23;;
71734;SDS011;59577;52.122;5.406;2023-06-22T07:50:07;10.80;;;9.90;;
71734;SDS011;59577;52.122;5.406;2023-06-22T07:52:34;11.10;;;8.80;;
71734;SDS011;59577;52.122;5.406;2023-06-22T07:55:01;10.27;;;9.27;;
71734;SDS011;59577;52.122;5.406;2023-06-22T07:57:28;12.75;;;8.82;;
71734;SDS011;59577;52.122;5.406;2023-06-22T08:00:03;9.75;;;8.85;;
71734;SDS011;59577;52.122;5.406;2023-06-22T08:02:39;10.02;;;8.77;;
71734;SDS011;59577;52.122;5.406;2023-06-22T08:05:07;10.45;;;9.35;;
71734;SDS011;59577;52.122;5.406;2023-06-22T08:07:55;8.37;;;7.67;;
71734;SDS011;59577;52.122;5.406;2023-06-22T08:10:22;9.73;;;8.82;;
71734;SDS011;59577;52.122;5.406;2023-06-22T08:12:48;8.98;;;8.10;;
71734;SDS011;59577;52.122;5.406;2023-06-22T08:15:15;8.75;;;7.95;;
71734;SDS011;59577;52.122;5.406;2023-06-22T08:17:42;11.77;;;7.80;;
71734;SDS011;59577;52.122;5.406;2023-06-22T08:20:09;9.23;;;8.43;;
71734;SDS011;59577;52.122;5.406;2023-06-22T08:22:38;8.43;;;7.68;;
71734;SDS011;59577;52.122;5.406;2023-06-22T08:25:05;9.95;;;8.10;;
71734;SDS011;59577;52.122;5.406;2023-06-22T08:27:32;9.85;;;8.82;;
71734;SDS011;59577;52.122;5.406;2023-06-22T08:29:59;9.07;;;8.18;;
71734;SDS011;59577;52.122;5.406;2023-06-22T08:32:27;10.67;;;8.83;;
71734;SDS011;59577;52.122;5.406;2023-06-22T08:34:55;8.90;;;8.10;;
71734;SDS011;59577;52.122;5.406;2023-06-22T08:37:22;9.40;;;7.07;;
71734;SDS011;59577;52.122;5.406;2023-06-22T08:39:58;8.38;;;7.20;;
71734;SDS011;59577;52.122;5.406;2023-06-22T08:42:27;8.55;;;7.70;;
71734;SDS011;59577;52.122;5.406;2023-06-22T08:44:54;7.80;;;7.03;;
71734;SDS011;59577;52.122;5.406;2023-06-22T08:47:20;9.35;;;6.90;;
71734;SDS011;59577;52.122;5.406;2023-06-22T08:49:47;6.63;;;5.95;;
71734;SDS011;59577;52.122;5.406;2023-06-22T08:52:15;6.78;;;5.60;;
71734;SDS011;59577;52.122;5.406;2023-06-22T08:54:41;7.30;;;5.78;;
71734;SDS011;59577;52.122;5.406;2023-06-22T08:57:08;6.00;;;5.50;;
71734;SDS011;59577;52.122;5.406;2023-06-22T08:59:34;6.50;;;5.82;;
71734;SDS011;59577;52.122;5.406;2023-06-22T09:02:01;5.93;;;5.45;;
71734;SDS011;59577;52.122;5.406;2023-06-22T09:04:28;6.65;;;5.00;;
71734;SDS011;59577;52.122;5.406;2023-06-22T09:06:55;5.40;;;4.90;;
71734;SDS011;59577;52.122;5.406;2023-06-22T09:09:21;5.13;;;4.73;;
71734;SDS011;59577;52.122;5.406;2023-06-22T09:11:48;6.00;;;5.50;;
71734;SDS011;59577;52.122;5.406;2023-06-22T09:14:15;5.30;;;4.80;;
71734;SDS011;59577;52.122;5.406;2023-06-22T09:16:42;7.05;;;5.10;;
71734;SDS011;59577;52.122;5.406;2023-06-22T09:19:08;4.70;;;3.90;;
71734;SDS011;59577;52.122;5.406;2023-06-22T09:21:35;4.30;;;3.67;;
71734;SDS011;59577;52.122;5.406;2023-06-22T09:24:02;3.97;;;3.58;;
71734;SDS011;59577;52.122;5.406;2023-06-22T09:26:29;4.57;;;3.97;;
71734;SDS011;59577;52.122;5.406;2023-06-22T09:28:56;6.43;;;3.33;;
71734;SDS011;59577;52.122;5.406;2023-06-22T09:31:22;5.70;;;4.55;;
71734;SDS011;59577;52.122;5.406;2023-06-22T09:33:52;3.70;;;3.33;;
71734;SDS011;59577;52.122;5.406;2023-06-22T09:36:23;4.00;;;3.60;;
71734;SDS011;59577;52.122;5.406;2023-06-22T09:38:50;5.25;;;4.75;;
71734;SDS011;59577;52.122;5.406;2023-06-22T09:41:24;5.93;;;5.53;;
71734;SDS011;59577;52.122;5.406;2023-06-22T09:43:51;5.53;;;5.03;;
71734;SDS011;59577;52.122;5.406;2023-06-22T09:46:21;4.50;;;4.10;;
71734;SDS011;59577;52.122;5.406;2023-06-22T09:48:51;6.50;;;3.67;;
71734;SDS011;59577;52.122;5.406;2023-06-22T09:51:17;4.53;;;3.97;;
71734;SDS011;59577;52.122;5.406;2023-06-22T09:53:46;4.50;;;3.40;;
71734;SDS011;59577;52.122;5.406;2023-06-22T09:56:12;4.47;;;2.97;;
71734;SDS011;59577;52.122;5.406;2023-06-22T09:58:44;4.33;;;3.70;;
71734;SDS011;59577;52.122;5.406;2023-06-22T10:01:19;4.50;;;4.10;;
71734;SDS011;59577;52.122;5.406;2023-06-22T10:03:47;5.65;;;3.88;;
71734;SDS011;59577;52.122;5.406;2023-06-22T10:06:14;5.03;;;4.60;;
71734;SDS011;59577;52.122;5.406;2023-06-22T10:08:40;4.90;;;4.35;;
71734;SDS011;59577;52.122;5.406;2023-06-22T10:11:07;4.97;;;4.57;;
71734;SDS011;59577;52.122;5.406;2023-06-22T10:13:34;7.03;;;4.50;;
71734;SDS011;59577;52.122;5.406;2023-06-22T10:16:00;4.78;;;3.75;;
71734;SDS011;59577;52.122;5.406;2023-06-22T10:18:27;3.45;;;2.95;;
71734;SDS011;59577;52.122;5.406;2023-06-22T10:20:53;3.47;;;3.17;;
71734;SDS011;59577;52.122;5.406;2023-06-22T10:23:20;3.77;;;3.47;;
71734;SDS011;59577;52.122;5.406;2023-06-22T10:25:47;4.70;;;2.92;;
71734;SDS011;59577;52.122;5.406;2023-06-22T10:28:14;3.28;;;2.97;;
71734;SDS011;59577;52.122;5.406;2023-06-22T10:30:41;3.45;;;2.90;;
71734;SDS011;59577;52.122;5.406;2023-06-22T10:33:08;3.65;;;2.97;;
71734;SDS011;59577;52.122;5.406;2023-06-22T10:35:35;6.53;;;4.07;;
71734;SDS011;59577;52.122;5.406;2023-06-22T10:38:04;3.47;;;3.17;;
71734;SDS011;59577;52.122;5.406;2023-06-22T10:40:31;3.70;;;3.25;;
71734;SDS011;59577;52.122;5.406;2023-06-22T10:42:58;4.28;;;3.47;;
71734;SDS011;59577;52.122;5.406;2023-06-22T10:45:25;4.65;;;3.70;;
71734;SDS011;59577;52.122;5.406;2023-06-22T10:47:51;3.70;;;2.97;;
71734;SDS011;59577;52.122;5.406;2023-06-22T10:50:18;4.07;;;3.13;;
71734;SDS011;59577;52.122;5.406;2023-06-22T10:52:46;4.65;;;4.22;;
71734;SDS011;59577;52.122;5.406;2023-06-22T10:55:12;4.38;;;3.22;;
71734;SDS011;59577;52.122;5.406;2023-06-22T10:57:39;4.13;;;3.70;;
71734;SDS011;59577;52.122;5.406;2023-06-22T11:00:10;3.43;;;3.13;;
71734;SDS011;59577;52.122;5.406;2023-06-22T11:02:37;5.82;;;3.35;;
71734;SDS011;59577;52.122;5.406;2023-06-22T11:05:04;5.95;;;3.53;;
71734;SDS011;59577;52.122;5.406;2023-06-22T11:07:31;4.15;;;3.72;;
71734;SDS011;59577;52.122;5.406;2023-06-22T11:09:59;4.72;;;4.30;;
71734;SDS011;59577;52.122;5.406;2023-06-22T11:12:25;6.33;;;3.33;;
71734;SDS011;59577;52.122;5.406;2023-06-22T11:14:52;5.90;;;3.40;;
71734;SDS011;59577;52.122;5.406;2023-06-22T11:17:18;4.68;;;3.55;;
71734;SDS011;59577;52.122;5.406;2023-06-22T11:19:45;5.05;;;3.58;;
71734;SDS011;59577;52.122;5.406;2023-06-22T11:22:12;5.68;;;3.63;;
71734;SDS011;59577;52.122;5.406;2023-06-22T11:24:39;5.03;;;3.43;;
71734;SDS011;59577;52.122;5.406;2023-06-22T11:27:06;7.80;;;3.20;;
71734;SDS011;59577;52.122;5.406;2023-06-22T11:29:33;3.92;;;2.90;;
71734;SDS011;59577;52.122;5.406;2023-06-22T11:32:04;4.95;;;3.47;;
71734;SDS011;59577;52.122;5.406;2023-06-22T11:34:31;4.28;;;3.88;;
71734;SDS011;59577;52.122;5.406;2023-06-22T11:36:58;9.10;;;4.70;;
71734;SDS011;59577;52.122;5.406;2023-06-22T11:39:25;8.30;;;4.47;;
71734;SDS011;59577;52.122;5.406;2023-06-22T11:42:06;4.88;;;4.40;;
71734;SDS011;59577;52.122;5.406;2023-06-22T11:44:33;4.75;;;4.20;;
71734;SDS011;59577;52.122;5.406;2023-06-22T11:47:00;6.35;;;4.65;;
71734;SDS011;59577;52.122;5.406;2023-06-22T11:49:27;5.87;;;4.30;;
71734;SDS011;59577;52.122;5.406;2023-06-22T11:51:53;6.38;;;5.68;;
71734;SDS011;59577;52.122;5.406;2023-06-22T11:54:20;7.28;;;5.40;;
71734;SDS011;59577;52.122;5.406;2023-06-22T11:56:47;8.27;;;4.93;;
71734;SDS011;59577;52.122;5.406;2023-06-22T11:59:14;7.72;;;5.78;;
71734;SDS011;59577;52.122;5.406;2023-06-22T12:01:40;8.03;;;5.97;;
71734;SDS011;59577;52.122;5.406;2023-06-22T12:04:07;12.35;;;7.50;;
71734;SDS011;59577;52.122;5.406;2023-06-22T12:06:37;9.57;;;6.60;;
71734;SDS011;59577;52.122;5.406;2023-06-22T12:09:04;7.28;;;5.95;;
71734;SDS011;59577;52.122;5.406;2023-06-22T12:11:31;5.65;;;5.15;;
71734;SDS011;59577;52.122;5.406;2023-06-22T12:13:57;8.27;;;6.37;;
71734;SDS011;59577;52.122;5.406;2023-06-22T12:16:28;10.18;;;6.30;;
71734;SDS011;59577;52.122;5.406;2023-06-22T12:18:54;11.13;;;5.85;;
71734;SDS011;59577;52.122;5.406;2023-06-22T12:21:21;7.82;;;7.00;;
71734;SDS011;59577;52.122;5.406;2023-06-22T12:23:48;7.28;;;6.47;;
71734;SDS011;59577;52.122;5.406;2023-06-22T12:26:14;7.03;;;5.57;;
71734;SDS011;59577;52.122;5.406;2023-06-22T12:28:42;10.65;;;6.80;;
71734;SDS011;59577;52.122;5.406;2023-06-22T12:31:08;8.90;;;7.50;;
71734;SDS011;59577;52.122;5.406;2023-06-22T12:33:35;6.18;;;5.38;;
71734;SDS011;59577;52.122;5.406;2023-06-22T12:36:02;8.60;;;7.35;;
71734;SDS011;59577;52.122;5.406;2023-06-22T12:38:29;8.47;;;7.50;;
71734;SDS011;59577;52.122;5.406;2023-06-22T12:40:56;8.60;;;7.80;;
71734;SDS011;59577;52.122;5.406;2023-06-22T12:43:23;8.77;;;7.90;;
71734;SDS011;59577;52.122;5.406;2023-06-22T12:45:49;8.43;;;7.45;;
71734;SDS011;59577;52.122;5.406;2023-06-22T12:48:16;7.90;;;6.72;;
71734;SDS011;59577;52.122;5.406;2023-06-22T12:50:43;10.27;;;7.97;;
71734;SDS011;59577;52.122;5.406;2023-06-22T12:53:09;10.35;;;6.70;;
71734;SDS011;59577;52.122;5.406;2023-06-22T12:55:36;7.80;;;7.00;;
71734;SDS011;59577;52.122;5.406;2023-06-22T12:58:05;9.38;;;6.85;;
71734;SDS011;59577;52.122;5.406;2023-06-22T13:00:32;8.07;;;6.43;;
71734;SDS011;59577;52.122;5.406;2023-06-22T13:02:58;8.50;;;6.33;;
71734;SDS011;59577;52.122;5.406;2023-06-22T13:05:25;8.95;;;5.63;;
71734;SDS011;59577;52.122;5.406;2023-06-22T13:07:51;7.80;;;5.90;;
71734;SDS011;59577;52.122;5.406;2023-06-22T13:10:18;5.93;;;5.35;;
71734;SDS011;59577;52.122;5.406;2023-06-22T13:12:45;6.65;;;5.70;;
71734;SDS011;59577;52.122;5.406;2023-06-22T13:15:11;5.87;;;5.30;;
71734;SDS011;59577;52.122;5.406;2023-06-22T13:17:38;6.18;;;5.28;;
71734;SDS011;59577;52.122;5.406;2023-06-22T13:20:05;6.70;;;5.68;;
71734;SDS011;59577;52.122;5.406;2023-06-22T13:22:33;11.13;;;5.75;;
71734;SDS011;59577;52.122;5.406;2023-06-22T13:25:07;7.65;;;5.28;;
71734;SDS011;59577;52.122;5.406;2023-06-22T13:27:36;7.93;;;4.93;;
71734;SDS011;59577;52.122;5.406;2023-06-22T13:30:03;8.05;;;5.72;;
71734;SDS011;59577;52.122;5.406;2023-06-22T13:32:30;7.43;;;6.45;;
71734;SDS011;59577;52.122;5.406;2023-06-22T13:34:57;7.60;;;6.13;;
71734;SDS011;59577;52.122;5.406;2023-06-22T13:37:23;11.13;;;6.55;;
71734;SDS011;59577;52.122;5.406;2023-06-22T13:39:50;7.63;;;6.83;;
71734;SDS011;59577;52.122;5.406;2023-06-22T13:42:17;11.23;;;6.30;;
71734;SDS011;59577;52.122;5.406;2023-06-22T13:44:44;7.25;;;5.53;;
71734;SDS011;59577;52.122;5.406;2023-06-22T13:47:10;7.43;;;6.60;;
71734;SDS011;59577;52.122;5.406;2023-06-22T13:49:37;8.35;;;6.70;;
71734;SDS011;59577;52.122;5.406;2023-06-22T13:52:04;8.30;;;6.93;;
71734;SDS011;59577;52.122;5.406;2023-06-22T13:54:33;8.20;;;6.32;;
71734;SDS011;59577;52.122;5.406;2023-06-22T13:57:01;6.72;;;6.03;;
71734;SDS011;59577;52.122;5.406;2023-06-22T13:59:28;7.15;;;6.45;;
71734;SDS011;59577;52.122;5.406;2023-06-22T14:01:55;7.68;;;6.40;;
71734;SDS011;59577;52.122;5.406;2023-06-22T14:04:24;8.30;;;5.90;;
71734;SDS011;59577;52.122;5.406;2023-06-22T14:06:51;10.00;;;6.90;;
71734;SDS011;59577;52.122;5.406;2023-06-22T14:09:22;8.90;;;6.55;;
71734;SDS011;59577;52.122;5.406;2023-06-22T14:11:48;9.35;;;6.45;;
71734;SDS011;59577;52.122;5.406;2023-06-22T14:14:15;7.47;;;5.82;;
71734;SDS011;59577;52.122;5.406;2023-06-22T14:16:42;8.47;;;6.47;;
71734;SDS011;59577;52.122;5.406;2023-06-22T14:19:08;6.32;;;5.70;;
71734;SDS011;59577;52.122;5.406;2023-06-22T14:21:35;8.40;;;6.35;;
71734;SDS011;59577;52.122;5.406;2023-06-22T14:24:01;9.02;;;7.20;;
71734;SDS011;59577;52.122;5.406;2023-06-22T14:26:28;8.23;;;7.43;;
71734;SDS011;59577;52.122;5.406;2023-06-22T14:28:55;8.83;;;6.23;;
71734;SDS011;59577;52.122;5.406;2023-06-22T14:31:22;10.77;;;7.30;;
71734;SDS011;59577;52.122;5.406;2023-06-22T14:33:49;8.57;;;7.43;;
71734;SDS011;59577;52.122;5.406;2023-06-22T14:36:16;8.43;;;7.35;;
71734;SDS011;59577;52.122;5.406;2023-06-22T14:38:46;7.25;;;6.50;;
71734;SDS011;59577;52.122;5.406;2023-06-22T14:41:13;8.17;;;6.93;;
71734;SDS011;59577;52.122;5.406;2023-06-22T14:43:46;9.20;;;6.63;;
71734;SDS011;59577;52.122;5.406;2023-06-22T14:46:14;10.00;;;6.80;;
71734;SDS011;59577;52.122;5.406;2023-06-22T14:48:41;8.75;;;6.82;;
71734;SDS011;59577;52.122;5.406;2023-06-22T14:51:08;8.45;;;6.43;;